Flight Track Log - Related Links

Times and Time Zones

All times are in EDT time to prevent confusion due to time zone crossing. See the TAM3119 flight status page for this flight to view local times or setup timezone preferences in your user account.

Time Position Orientation Groundspeed Altitude Reporting Facility
EDT Latitude Longitude Course Direction KTS MPH feet Rate Location/Type
Fri 06:13:00 AM -25.0805 -47.5321 209° Southwest  Level Estimated
Fri 06:14:00 AM -25.1385 -47.5676 209° Southwest  Level Estimated
Fri 06:15:00 AM -25.1966 -47.6032 209° Southwest  Level Estimated
Fri 06:16:00 AM -25.2546 -47.6387 209° Southwest  Level Estimated
Fri 06:17:00 AM -25.3126 -47.6743 209° Southwest  Level Estimated
Fri 06:18:00 AM -25.3706 -47.7100 209° Southwest  Level Estimated
Fri 06:19:00 AM -25.4286 -47.7456 209° Southwest  Level Estimated
Fri 06:20:00 AM -25.4866 -47.7813 209° Southwest  Level Estimated
Fri 06:21:00 AM -25.5446 -47.8171 209° Southwest  Level Estimated
Fri 06:22:00 AM -25.6026 -47.8528 209° Southwest  Level Estimated
Fri 06:23:00 AM -25.6606 -47.8886 209° Southwest  Level Estimated
Fri 06:24:00 AM -25.7185 -47.9245 209° Southwest  Level Estimated
Fri 06:25:00 AM -25.7765 -47.9603 209° Southwest  Level Estimated
Fri 06:26:00 AM -25.8344 -47.9963 209° Southwest  Level Estimated
Fri 06:27:00 AM -25.8924 -48.0322 209° Southwest  Level Estimated
Fri 06:28:00 AM -25.9503 -48.0682 209° Southwest  Level Estimated
Fri 06:29:00 AM -26.0082 -48.1042 209° Southwest  Level Estimated
Fri 06:30:00 AM -26.0661 -48.1402 209° Southwest  Level Estimated
Fri 06:31:00 AM -26.1240 -48.1763 209° Southwest  Level Estimated
Fri 06:32:00 AM -26.1819 -48.2124 209° Southwest  Level Estimated
Fri 06:33:00 AM -26.2398 -48.2486 209° Southwest  Level Estimated
Fri 06:34:00 AM -26.2976 -48.2848 209° Southwest  Level Estimated
Fri 06:35:00 AM -26.3555 -48.3210 209° Southwest  Level Estimated
Fri 06:36:00 AM -26.4134 -48.3573 209° Southwest  Level Estimated
Fri 06:37:00 AM -26.4712 -48.3936 209° Southwest  Level Estimated
Fri 06:38:00 AM -26.5290 -48.4299 209° Southwest  Level Estimated
Fri 06:39:00 AM -26.5868 -48.4663 209° Southwest  Level Estimated
Fri 06:40:00 AM -26.6447 -48.5027 209° Southwest  Level Estimated
Fri 06:41:00 AM -26.7025 -48.5392 209° Southwest  Level Estimated
Fri 06:42:00 AM -26.7603 -48.5757 209° Southwest  Level Estimated
Fri 06:43:00 AM -26.8181 -48.6122 209° Southwest  Level Estimated
Fri 06:44:00 AM -26.8759 -48.6488 209° Southwest  Level Estimated
Fri 06:45:00 AM -26.8800 -48.6514 209° Southwest  Level Estimated
Fri 06:46:00 AM -26.8800 -48.6514 North  Level Estimated
Fri 06:47:00 AM -26.8800 -48.6514 North  Level Estimated

Login

Don't have an account? Register now (free) for customized features, flight alerts, and more!